createdAt,value
2022-11-01T00:00:00.948Z,7.57
2022-11-01T00:01:01.094Z,7.5
2022-11-01T00:02:01.322Z,7.46
2022-11-01T00:03:00.398Z,7.46
2022-11-01T00:04:00.535Z,7.48
2022-11-01T00:05:00.693Z,7.53
2022-11-01T00:06:00.832Z,7.48
2022-11-01T00:07:01.003Z,7.46
2022-11-01T00:08:01.355Z,7.48
2022-11-01T00:09:00.286Z,7.43
2022-11-01T00:10:00.437Z,7.41
2022-11-01T00:11:00.581Z,7.41
2022-11-01T00:12:00.742Z,7.42
2022-11-01T00:13:01.305Z,7.4
2022-11-01T00:14:01.016Z,7.38
2022-11-01T00:15:01.181Z,7.33
2022-11-01T00:16:00.322Z,7.31
2022-11-01T00:17:00.476Z,7.31
2022-11-01T00:18:00.631Z,7.32
2022-11-01T00:19:00.772Z,7.32
2022-11-01T00:20:00.917Z,7.31
2022-11-01T00:21:01.078Z,7.3
2022-11-01T00:22:01.215Z,7.3
2022-11-01T00:23:00.666Z,7.3
2022-11-01T00:24:00.514Z,7.3
2022-11-01T00:25:00.659Z,7.33
2022-11-01T00:26:00.810Z,7.33
2022-11-01T00:27:00.963Z,7.3
2022-11-01T00:28:01.383Z,7.29
2022-11-01T00:29:01.253Z,7.29
2022-11-01T00:30:00.401Z,7.35
2022-11-01T00:31:00.550Z,7.39
2022-11-01T00:32:00.704Z,7.35
2022-11-01T00:33:00.854Z,7.33
2022-11-01T00:34:01.021Z,7.28
2022-11-01T00:35:01.135Z,7.27
2022-11-01T00:36:00.284Z,7.26
2022-11-01T00:37:00.425Z,7.26
2022-11-01T00:38:01.079Z,7.3
2022-11-01T00:39:00.778Z,7.33
2022-11-01T00:40:00.921Z,7.35
2022-11-01T00:41:01.074Z,7.37
2022-11-01T00:42:01.237Z,7.37
2022-11-01T00:43:00.373Z,7.38
2022-11-01T00:44:00.517Z,7.37
2022-11-01T00:45:00.676Z,7.35
2022-11-01T00:46:00.823Z,7.37
2022-11-01T00:47:00.979Z,7.35
2022-11-01T00:48:01.478Z,7.34
2022-11-01T00:49:01.257Z,7.34
2022-11-01T00:50:00.388Z,7.34
2022-11-01T00:51:00.550Z,7.33
2022-11-01T00:52:00.730Z,7.32
2022-11-01T00:53:00.846Z,7.3
2022-11-01T00:54:00.993Z,7.29
2022-11-01T00:55:01.135Z,7.25
2022-11-01T00:56:00.280Z,7.2
2022-11-01T00:57:00.440Z,7.12
2022-11-01T00:58:00.754Z,7.12
2022-11-01T00:59:00.724Z,7.1
2022-11-01T01:00:00.880Z,7.05
2022-11-01T01:01:01.067Z,7.05
2022-11-01T01:02:01.266Z,7.01
2022-11-01T01:03:00.675Z,6.96
2022-11-01T01:04:00.456Z,6.99
2022-11-01T01:05:00.606Z,6.96
2022-11-01T01:06:00.772Z,6.96
2022-11-01T01:07:00.902Z,6.99
2022-11-01T01:08:01.045Z,7
2022-11-01T01:09:01.207Z,6.96
2022-11-01T01:10:00.353Z,6.97
2022-11-01T01:11:00.515Z,6.96
2022-11-01T01:12:00.644Z,6.98
2022-11-01T01:13:01.172Z,6.99
2022-11-01T01:14:00.947Z,6.98
2022-11-01T01:15:01.104Z,6.97
2022-11-01T01:16:01.274Z,6.99
2022-11-01T01:17:00.394Z,7
2022-11-01T01:18:00.889Z,6.99
2022-11-01T01:19:00.697Z,6.98
2022-11-01T01:20:00.859Z,6.97
2022-11-01T01:21:01.022Z,7
2022-11-01T01:22:01.156Z,7
2022-11-01T01:23:00.287Z,7
2022-11-01T01:24:00.435Z,7.01
2022-11-01T01:25:00.582Z,6.99
2022-11-01T01:26:00.741Z,7.02
2022-11-01T01:27:00.902Z,7.05
2022-11-01T01:28:01.256Z,7.03
2022-11-01T01:29:01.184Z,7.07
2022-11-01T01:30:00.333Z,7.12
2022-11-01T01:31:00.488Z,7.12
2022-11-01T01:32:00.654Z,7.17
2022-11-01T01:33:00.886Z,7.22
2022-11-01T01:34:00.942Z,7.25
2022-11-01T01:35:01.082Z,7.2
2022-11-01T01:36:01.244Z,7.23
2022-11-01T01:37:00.394Z,7.24
2022-11-01T01:38:00.817Z,7.27
2022-11-01T01:39:00.667Z,7.3
2022-11-01T01:40:00.818Z,7.32
2022-11-01T01:41:00.967Z,7.35
2022-11-01T01:42:01.143Z,7.35
2022-11-01T01:43:00.252Z,7.37
2022-11-01T01:44:00.412Z,7.39
2022-11-01T01:45:00.561Z,7.42
2022-11-01T01:46:00.715Z,7.41
2022-11-01T01:47:00.864Z,7.43
2022-11-01T01:48:01.400Z,7.46
2022-11-01T01:49:01.151Z,7.47
2022-11-01T01:50:00.458Z,7.46
2022-11-01T01:51:00.437Z,7.46
2022-11-01T01:52:00.573Z,7.5
2022-11-01T01:53:00.986Z,7.53
2022-11-01T01:54:00.875Z,7.57
2022-11-01T01:55:01.048Z,7.57
2022-11-01T01:56:01.182Z,7.57
2022-11-01T01:57:00.327Z,7.58
2022-11-01T01:58:00.467Z,7.59
2022-11-01T01:59:00.625Z,7.61
2022-11-01T02:00:00.797Z,7.61
2022-11-01T02:01:01.002Z,7.61
2022-11-01T02:02:01.236Z,7.61
2022-11-01T02:03:01.615Z,7.64
2022-11-01T02:04:00.374Z,7.64
2022-11-01T02:05:00.497Z,7.62
2022-11-01T02:06:00.674Z,7.61
2022-11-01T02:07:00.797Z,7.63
2022-11-01T02:08:01.375Z,7.65
2022-11-01T02:09:01.116Z,7.67
2022-11-01T02:10:01.256Z,7.65
2022-11-01T02:11:00.401Z,7.63
2022-11-01T02:12:00.550Z,7.6
2022-11-01T02:13:00.707Z,7.59
2022-11-01T02:14:00.875Z,7.58
2022-11-01T02:15:01.005Z,7.56
2022-11-01T02:16:01.151Z,7.57
2022-11-01T02:17:00.318Z,7.56
2022-11-01T02:18:00.769Z,7.55
2022-11-01T02:19:00.578Z,7.55
2022-11-01T02:20:00.719Z,7.55
2022-11-01T02:21:00.871Z,7.57
2022-11-01T02:22:01.039Z,7.59
2022-11-01T02:23:01.601Z,7.59
2022-11-01T02:24:00.305Z,7.59
2022-11-01T02:25:00.455Z,7.57
2022-11-01T02:26:00.604Z,7.56
2022-11-01T02:27:00.786Z,7.55
2022-11-01T02:28:00.902Z,7.53
2022-11-01T02:29:04.787Z,7.5
2022-11-01T02:30:01.195Z,7.46
2022-11-01T02:31:00.331Z,7.45
2022-11-01T02:32:00.506Z,7.45
2022-11-01T02:33:00.818Z,7.42
2022-11-01T02:34:00.797Z,7.4
2022-11-01T02:35:00.929Z,7.41
2022-11-01T02:36:01.066Z,7.41
2022-11-01T02:37:01.218Z,7.43
2022-11-01T02:38:00.350Z,7.45
2022-11-01T02:39:00.591Z,7.46
2022-11-01T02:40:00.658Z,7.46
2022-11-01T02:41:00.794Z,7.46
2022-11-01T02:42:01.000Z,7.47
2022-11-01T02:43:01.543Z,7.46
2022-11-01T02:44:00.267Z,7.41
2022-11-01T02:45:00.431Z,7.4
2022-11-01T02:46:00.569Z,7.42
2022-11-01T02:47:00.719Z,7.44
2022-11-01T02:48:00.876Z,7.45
2022-11-01T02:49:01.020Z,7.46
2022-11-01T02:50:01.207Z,7.48
2022-11-01T02:51:00.322Z,7.47
2022-11-01T02:52:00.476Z,7.44
2022-11-01T02:53:00.821Z,7.38
2022-11-01T02:54:00.762Z,7.33
2022-11-01T02:55:00.941Z,7.32
2022-11-01T02:56:01.048Z,7.33
2022-11-01T02:57:01.200Z,7.33
2022-11-01T02:58:00.664Z,7.37
2022-11-01T02:59:00.501Z,7.34
2022-11-01T03:00:00.642Z,7.3
2022-11-01T03:01:00.834Z,7.31
2022-11-01T03:02:01.121Z,7.31
2022-11-01T03:03:01.118Z,7.3
2022-11-01T03:04:01.237Z,7.27
2022-11-01T03:05:00.382Z,7.26
2022-11-01T03:06:00.548Z,7.26
2022-11-01T03:07:00.685Z,7.25
2022-11-01T03:08:01.250Z,7.22
2022-11-01T03:09:00.975Z,7.17
2022-11-01T03:10:01.129Z,7.15
2022-11-01T03:11:00.266Z,7.16
2022-11-01T03:12:00.443Z,7.16
2022-11-01T03:13:00.793Z,7.12
2022-11-01T03:14:00.720Z,7.1
2022-11-01T03:15:00.860Z,7.1
2022-11-01T03:16:01.016Z,7.13
2022-11-01T03:17:01.158Z,7.17
2022-11-01T03:18:00.323Z,7.18
2022-11-01T03:19:00.449Z,7.15
2022-11-01T03:20:00.599Z,7.13
2022-11-01T03:21:00.745Z,7.12
2022-11-01T03:22:00.891Z,7.15
2022-11-01T03:23:01.366Z,7.13
2022-11-01T03:24:01.181Z,7.1
2022-11-01T03:25:00.329Z,7.1
2022-11-01T03:26:00.482Z,7.12
2022-11-01T03:27:00.619Z,7.08
2022-11-01T03:28:00.773Z,7.08
2022-11-01T03:29:00.919Z,7.08
2022-11-01T03:30:01.049Z,7.01
2022-11-01T03:31:01.193Z,7.02
2022-11-01T03:32:00.344Z,7.03
2022-11-01T03:33:00.790Z,7.07
2022-11-01T03:34:00.650Z,7.03
2022-11-01T03:35:00.785Z,7.03
2022-11-01T03:36:00.936Z,7.02
2022-11-01T03:37:01.089Z,7.02
2022-11-01T03:38:01.247Z,7.01
2022-11-01T03:39:00.374Z,7
2022-11-01T03:40:00.519Z,6.98
2022-11-01T03:41:00.664Z,6.97
2022-11-01T03:42:00.809Z,6.91
2022-11-01T03:43:01.227Z,6.89
2022-11-01T03:44:01.111Z,6.89
2022-11-01T03:45:00.258Z,6.85
2022-11-01T03:46:00.400Z,6.81
2022-11-01T03:47:00.547Z,6.76
2022-11-01T03:48:01.228Z,6.75
2022-11-01T03:49:00.844Z,6.75
2022-11-01T03:50:00.988Z,6.76
2022-11-01T03:51:01.139Z,6.79
2022-11-01T03:52:00.280Z,6.78
2022-11-01T03:53:00.481Z,6.76
2022-11-01T03:54:00.586Z,6.73
2022-11-01T03:55:00.728Z,6.74
2022-11-01T03:56:00.884Z,6.75
2022-11-01T03:57:01.043Z,6.75
2022-11-01T03:58:01.556Z,6.75
2022-11-01T03:59:00.343Z,6.78
2022-11-01T04:00:00.475Z,6.79
2022-11-01T04:01:00.679Z,6.81
2022-11-01T04:02:00.960Z,6.84
2022-11-01T04:03:01.373Z,6.85
2022-11-01T04:04:01.094Z,6.87
2022-11-01T04:05:01.219Z,6.88
2022-11-01T04:06:00.371Z,6.89
2022-11-01T04:07:00.510Z,6.9
2022-11-01T04:08:00.692Z,6.93
2022-11-01T04:09:00.797Z,6.9
2022-11-01T04:10:00.970Z,6.9
2022-11-01T04:11:01.110Z,6.93
2022-11-01T04:12:01.238Z,6.93
2022-11-01T04:13:00.663Z,6.94
2022-11-01T04:14:00.536Z,6.96
2022-11-01T04:15:00.692Z,6.99
2022-11-01T04:16:00.848Z,6.98
2022-11-01T04:17:00.986Z,6.95
2022-11-01T04:18:01.171Z,6.94
2022-11-01T04:19:00.276Z,6.98
2022-11-01T04:20:00.423Z,6.97
2022-11-01T04:21:00.581Z,6.97
2022-11-01T04:22:00.739Z,6.96
2022-11-01T04:23:01.427Z,6.94
2022-11-01T04:24:01.037Z,6.91
2022-11-01T04:25:01.172Z,6.91
2022-11-01T04:26:00.327Z,6.97
2022-11-01T04:27:00.471Z,6.95
2022-11-01T04:28:00.646Z,6.96
2022-11-01T04:29:00.760Z,7.02
2022-11-01T04:30:00.908Z,7.08
2022-11-01T04:31:01.050Z,7.12
2022-11-01T04:32:01.194Z,7.14
2022-11-01T04:33:00.608Z,7.14
2022-11-01T04:34:00.481Z,7.12
2022-11-01T04:35:00.715Z,7.09
2022-11-01T04:36:00.786Z,7.03
2022-11-01T04:37:00.937Z,7.02
2022-11-01T04:38:01.400Z,7.05
2022-11-01T04:39:01.225Z,7.07
2022-11-01T04:40:00.367Z,7.07
2022-11-01T04:41:00.513Z,7.1
2022-11-01T04:42:00.654Z,7.13
2022-11-01T04:43:00.820Z,7.16
2022-11-01T04:44:00.953Z,7.17
2022-11-01T04:45:01.094Z,7.17
2022-11-01T04:46:01.240Z,7.18
2022-11-01T04:47:00.373Z,7.17
2022-11-01T04:48:00.788Z,7.17
2022-11-01T04:49:00.679Z,7.17
2022-11-01T04:50:00.825Z,7.17
2022-11-01T04:51:00.970Z,7.18
2022-11-01T04:52:01.131Z,7.19
2022-11-01T04:53:00.538Z,7.18
2022-11-01T04:54:00.419Z,7.2
2022-11-01T04:55:00.560Z,7.22
2022-11-01T04:56:00.713Z,7.22
2022-11-01T04:57:00.872Z,7.23
2022-11-01T04:58:01.064Z,7.23
2022-11-01T04:59:01.169Z,7.23
2022-11-01T05:00:00.321Z,7.23
2022-11-01T05:01:00.552Z,7.23
2022-11-01T05:02:00.657Z,7.23
2022-11-01T05:03:01.040Z,7.23
2022-11-01T05:04:00.900Z,7.2
2022-11-01T05:05:01.051Z,7.18
2022-11-01T05:06:01.204Z,7.16
2022-11-01T05:07:00.352Z,7.14
2022-11-01T05:09:00.642Z,7.11
2022-11-01T05:10:00.796Z,7.12
2022-11-01T05:11:00.954Z,7.12
2022-11-01T05:12:01.094Z,7.14
2022-11-01T05:13:01.703Z,7.14
2022-11-01T05:14:00.395Z,7.16
2022-11-01T05:15:00.552Z,7.17
2022-11-01T05:16:18.498Z,7.22
2022-11-01T05:17:00.843Z,7.25
2022-11-01T05:18:01.015Z,7.26
2022-11-01T05:19:01.137Z,7.29
2022-11-01T05:20:00.283Z,7.29
2022-11-01T05:21:00.422Z,7.28
2022-11-01T05:22:00.580Z,7.27
2022-11-01T05:23:01.205Z,7.29
2022-11-01T05:24:00.877Z,7.31
2022-11-01T05:25:01.015Z,7.32
2022-11-01T05:26:01.166Z,7.34
2022-11-01T05:27:00.311Z,7.37
2022-11-01T05:28:00.772Z,7.38
2022-11-01T05:29:08.769Z,7.38
2022-11-01T05:30:00.759Z,7.39
2022-11-01T05:31:00.912Z,7.39
2022-11-01T05:32:01.060Z,7.4
2022-11-01T05:33:01.233Z,7.4
2022-11-01T05:34:00.350Z,7.4
2022-11-01T05:35:00.502Z,7.45
2022-11-01T05:36:00.654Z,7.5
2022-11-01T05:37:00.813Z,7.53
2022-11-01T05:38:01.444Z,7.54
2022-11-01T05:39:01.102Z,7.54
2022-11-01T05:40:01.247Z,7.56
2022-11-01T05:41:00.486Z,7.56
2022-11-01T05:42:02.840Z,7.55
2022-11-01T05:43:00.992Z,7.55
2022-11-01T05:44:00.870Z,7.55
2022-11-01T05:45:01.003Z,7.55
2022-11-01T05:46:01.146Z,7.56
2022-11-01T05:47:00.291Z,7.59
2022-11-01T05:48:00.450Z,7.61
2022-11-01T05:49:00.601Z,7.61
2022-11-01T05:50:00.756Z,7.64
2022-11-01T05:51:00.873Z,7.67
2022-11-01T05:52:01.036Z,7.71
2022-11-01T05:53:01.382Z,7.75
2022-11-01T05:54:00.312Z,7.78
2022-11-01T05:55:00.483Z,7.81
2022-11-01T05:56:00.617Z,7.83
2022-11-01T05:57:00.760Z,7.85
2022-11-01T05:58:00.906Z,7.86
2022-11-01T05:59:01.053Z,7.88
2022-11-01T06:00:01.232Z,7.89
2022-11-01T06:01:00.359Z,7.91
2022-11-01T06:02:00.584Z,7.93
2022-11-01T06:03:01.083Z,7.96
2022-11-01T06:04:00.803Z,7.99
2022-11-01T06:05:03.087Z,8.02
2022-11-01T06:06:01.098Z,8.03
2022-11-01T06:07:01.243Z,8.06
2022-11-01T06:08:00.403Z,8.06
2022-11-01T06:09:00.538Z,8.08
2022-11-01T06:10:00.704Z,8.09
2022-11-01T06:11:00.856Z,8.11
2022-11-01T06:12:00.971Z,8.13
2022-11-01T06:13:01.479Z,8.14
2022-11-01T06:14:00.285Z,8.15
2022-11-01T06:15:00.413Z,8.16
2022-11-01T06:16:00.576Z,8.18
2022-11-01T06:17:00.713Z,8.21
2022-11-01T06:18:01.201Z,8.24
2022-11-01T06:19:01.010Z,8.26
2022-11-01T06:20:01.164Z,8.28
2022-11-01T06:21:00.318Z,8.32
2022-11-01T06:22:00.479Z,8.35
2022-11-01T06:23:00.600Z,8.44
2022-11-01T06:24:00.750Z,8.5
2022-11-01T06:25:00.902Z,8.57
2022-11-01T06:26:01.048Z,8.65
2022-11-01T06:27:01.216Z,8.74
2022-11-01T06:28:00.713Z,8.82
2022-11-01T06:29:00.488Z,8.93
2022-11-01T06:30:00.654Z,8.94
2022-11-01T06:31:00.883Z,9.02
2022-11-01T06:32:00.964Z,9.21
2022-11-01T06:33:01.506Z,9.41
2022-11-01T06:34:00.271Z,9.57
2022-11-01T06:35:00.420Z,9.71
2022-11-01T06:36:00.580Z,9.81
2022-11-01T06:37:00.720Z,9.9
2022-11-01T06:38:00.855Z,9.95
2022-11-01T06:39:00.992Z,10
2022-11-01T06:40:01.154Z,10.07
2022-11-01T06:41:00.300Z,10.16
2022-11-01T06:42:00.466Z,10.26
2022-11-01T06:43:00.900Z,10.39
2022-11-01T06:44:00.747Z,10.49
2022-11-01T06:45:00.900Z,10.59
2022-11-01T06:46:01.046Z,10.69
2022-11-01T06:47:01.183Z,10.8
2022-11-01T06:48:00.674Z,10.87
2022-11-01T06:49:00.488Z,10.97
2022-11-01T06:50:00.611Z,11.04
2022-11-01T06:51:00.765Z,11.12
2022-11-01T06:52:00.917Z,11.18
2022-11-01T06:53:01.055Z,11.22
2022-11-01T06:54:01.215Z,11.24
2022-11-01T06:55:00.349Z,11.28
2022-11-01T06:56:00.487Z,11.28
2022-11-01T06:57:00.636Z,11.28
2022-11-01T06:58:01.158Z,11.27
2022-11-01T06:59:00.950Z,11.3
2022-11-01T07:00:01.069Z,11.32
2022-11-01T07:01:01.315Z,11.34
2022-11-01T07:02:00.495Z,11.33
2022-11-01T07:03:00.521Z,11.34
2022-11-01T07:04:00.719Z,11.33
2022-11-01T07:05:00.801Z,11.3
2022-11-01T07:06:00.953Z,11.27
2022-11-01T07:07:01.101Z,11.22
2022-11-01T07:08:01.561Z,11.18
2022-11-01T07:09:00.408Z,11.17
2022-11-01T07:10:00.526Z,11.19
2022-11-01T07:11:00.672Z,11.27
2022-11-01T07:12:00.832Z,11.33
2022-11-01T07:13:00.970Z,11.39
2022-11-01T07:14:01.130Z,11.43
2022-11-01T07:16:00.383Z,11.54
2022-11-01T07:17:00.506Z,11.58
2022-11-01T07:18:00.895Z,11.62
2022-11-01T07:19:00.811Z,11.63
2022-11-01T07:20:00.963Z,11.69
2022-11-01T07:21:01.150Z,11.7
2022-11-01T07:22:00.267Z,11.75
2022-11-01T07:23:00.666Z,11.82
2022-11-01T07:24:00.573Z,11.86
2022-11-01T07:25:00.729Z,11.89
2022-11-01T07:26:00.902Z,11.91
2022-11-01T07:27:01.014Z,11.97
2022-11-01T07:28:01.155Z,12
2022-11-01T07:29:00.308Z,12.04
2022-11-01T07:30:00.443Z,12.08
2022-11-01T07:31:00.605Z,12.14
2022-11-01T07:32:00.741Z,12.23
2022-11-01T07:33:01.283Z,12.33
2022-11-01T07:34:01.021Z,12.44
2022-11-01T07:35:01.194Z,12.57
2022-11-01T07:36:00.312Z,12.66
2022-11-01T07:37:00.485Z,12.75
2022-11-01T07:38:01.982Z,12.84
2022-11-01T07:39:00.740Z,12.91
2022-11-01T07:40:00.896Z,12.97
2022-11-01T07:41:01.039Z,13.03
2022-11-01T07:42:01.204Z,13.06
2022-11-01T07:43:00.331Z,13.1
2022-11-01T07:44:00.472Z,13.1
2022-11-01T07:45:00.621Z,13.1
2022-11-01T07:46:00.765Z,13.12
2022-11-01T07:47:00.944Z,13.16
2022-11-01T07:48:01.424Z,13.2
2022-11-01T07:49:01.206Z,13.23
2022-11-01T07:50:00.350Z,13.25
2022-11-01T07:51:00.484Z,13.29
2022-11-01T07:52:02.919Z,13.32
2022-11-01T07:53:00.791Z,13.34
2022-11-01T07:55:01.081Z,13.39
2022-11-01T07:56:01.231Z,13.44
2022-11-01T07:57:00.392Z,13.47
2022-11-01T07:58:00.757Z,13.51
2022-11-01T07:59:00.674Z,13.56
2022-11-01T08:00:00.823Z,13.6
2022-11-01T08:01:01.076Z,13.64
2022-11-01T08:02:05.292Z,13.68
2022-11-01T08:03:00.705Z,13.73
2022-11-01T08:04:00.401Z,13.75
2022-11-01T08:05:00.551Z,13.78
2022-11-01T08:06:00.698Z,13.78
2022-11-01T08:07:00.846Z,13.8
2022-11-01T08:08:01.352Z,13.83
2022-11-01T08:09:01.135Z,13.86
2022-11-01T08:10:00.275Z,13.86
2022-11-01T08:11:00.436Z,13.89
2022-11-01T08:12:00.586Z,13.92
2022-11-01T08:13:00.766Z,13.95
2022-11-01T08:14:04.273Z,13.97
2022-11-01T08:15:01.046Z,14
2022-11-01T08:16:01.195Z,14.04
2022-11-01T08:17:00.335Z,14.08
2022-11-01T08:18:00.950Z,14.1
2022-11-01T08:19:00.637Z,14.12
2022-11-01T08:20:00.781Z,14.14
2022-11-01T08:21:00.927Z,14.17
2022-11-01T08:22:01.083Z,14.19
2022-11-01T08:23:01.543Z,14.22
2022-11-01T08:24:00.373Z,14.24
2022-11-01T08:25:00.525Z,14.25
2022-11-01T08:26:00.674Z,14.27
2022-11-01T08:27:00.820Z,14.29
2022-11-01T08:28:00.975Z,14.3
2022-11-01T08:29:01.106Z,14.33
2022-11-01T08:30:01.242Z,14.34
2022-11-01T08:31:00.392Z,14.35
2022-11-01T08:32:00.526Z,14.37
2022-11-01T08:33:01.041Z,14.37
2022-11-01T08:34:00.835Z,14.38
2022-11-01T08:35:00.996Z,14.39
2022-11-01T08:36:01.137Z,14.4
2022-11-01T08:37:00.282Z,14.38
2022-11-01T08:38:00.453Z,14.4
2022-11-01T08:39:00.620Z,14.43
2022-11-01T08:40:00.724Z,14.43
2022-11-01T08:41:00.876Z,14.43
2022-11-01T08:42:01.031Z,14.44
2022-11-01T08:43:01.596Z,14.49
2022-11-01T08:44:00.316Z,14.51
2022-11-01T08:45:00.460Z,14.55
2022-11-01T08:46:00.620Z,14.58
2022-11-01T08:47:00.759Z,14.62
2022-11-01T08:48:00.984Z,14.65
2022-11-01T08:49:01.054Z,14.67
2022-11-01T08:50:01.222Z,14.69
2022-11-01T08:51:00.348Z,14.7
2022-11-01T08:52:00.501Z,14.72
2022-11-01T08:53:01.014Z,14.74
2022-11-01T08:54:00.799Z,14.75
2022-11-01T08:55:00.937Z,14.78
2022-11-01T08:56:01.097Z,14.79
2022-11-01T08:57:01.245Z,14.8
2022-11-01T08:58:00.724Z,14.82
2022-11-01T08:59:00.573Z,14.84
2022-11-01T09:00:00.717Z,14.85
2022-11-01T09:01:00.936Z,14.85
2022-11-01T09:02:01.143Z,14.86
2022-11-01T09:03:01.171Z,14.87
2022-11-01T09:04:00.299Z,14.88
2022-11-01T09:05:00.440Z,14.89
2022-11-01T09:06:00.587Z,14.91
2022-11-01T09:07:00.735Z,14.92
2022-11-01T09:08:01.567Z,14.93
2022-11-01T09:09:01.009Z,14.94
2022-11-01T09:10:01.160Z,14.95
2022-11-01T09:11:00.296Z,14.96
2022-11-01T09:12:00.446Z,14.97
2022-11-01T09:13:01.036Z,14.98
2022-11-01T09:14:00.744Z,14.99
2022-11-01T09:15:00.897Z,15
2022-11-01T09:16:02.285Z,15.01
2022-11-01T09:17:01.180Z,15.01
2022-11-01T09:18:00.348Z,15.02
2022-11-01T09:19:00.479Z,15.03
2022-11-01T09:20:00.618Z,15.03
2022-11-01T09:21:00.765Z,15.04
2022-11-01T09:22:00.921Z,15.04
2022-11-01T09:23:01.428Z,15.04
2022-11-01T09:24:01.214Z,15.04
2022-11-01T09:25:00.358Z,15.06
2022-11-01T09:26:00.517Z,15.07
2022-11-01T09:27:00.645Z,15.07
2022-11-01T09:28:00.801Z,15.07
2022-11-01T09:29:00.959Z,15.1
2022-11-01T09:30:01.081Z,15.13
2022-11-01T09:31:15.475Z,15.17
2022-11-01T09:32:00.374Z,15.21
2022-11-01T09:33:00.738Z,15.23
2022-11-01T09:34:00.708Z,15.26
2022-11-01T09:35:00.831Z,15.28
2022-11-01T09:36:00.975Z,15.31
2022-11-01T09:37:01.117Z,15.33
2022-11-01T09:38:00.260Z,15.34
2022-11-01T09:39:00.433Z,15.37
2022-11-01T09:40:00.562Z,15.41
2022-11-01T09:41:00.710Z,15.43
2022-11-01T09:42:00.870Z,15.46
2022-11-01T09:43:02.019Z,15.49
2022-11-01T09:44:01.170Z,15.52
2022-11-01T09:45:00.290Z,15.52
2022-11-01T09:46:00.448Z,15.55
2022-11-01T09:47:02.595Z,15.59
2022-11-01T09:48:01.139Z,15.6
2022-11-01T09:49:00.919Z,15.6
2022-11-01T09:50:01.096Z,15.62
2022-11-01T09:51:01.219Z,15.61
2022-11-01T09:52:00.354Z,15.66
2022-11-01T09:53:00.502Z,15.68
2022-11-01T09:54:00.643Z,15.69
2022-11-01T09:55:00.842Z,15.7
2022-11-01T09:56:00.960Z,15.71
2022-11-01T09:57:01.112Z,15.71
2022-11-01T09:58:01.639Z,15.72
2022-11-01T09:59:00.379Z,15.73
2022-11-01T10:00:00.544Z,15.74
2022-11-01T10:01:00.770Z,15.74
2022-11-01T10:02:02.130Z,15.74
2022-11-01T10:03:01.055Z,15.75
2022-11-01T10:04:01.132Z,15.76
2022-11-01T10:05:00.281Z,15.75
2022-11-01T10:06:00.414Z,15.75
2022-11-01T10:07:00.566Z,15.75
2022-11-01T10:08:01.132Z,15.76
2022-11-01T10:09:00.874Z,15.76
2022-11-01T10:10:01.037Z,15.77
2022-11-01T10:11:01.161Z,15.8
2022-11-01T10:12:00.308Z,15.81
2022-11-01T10:13:00.468Z,15.83
2022-11-01T10:14:00.608Z,15.87
2022-11-01T10:15:00.777Z,15.89
2022-11-01T10:16:00.911Z,15.93
2022-11-01T10:17:01.048Z,15.97
2022-11-01T10:18:01.194Z,16.01
2022-11-01T10:19:00.360Z,16.04
2022-11-01T10:20:00.571Z,16.06
2022-11-01T10:21:00.652Z,16.1
2022-11-01T10:22:00.796Z,16.1
2022-11-01T10:23:01.187Z,16.12
2022-11-01T10:24:01.094Z,16.14
2022-11-01T10:25:01.272Z,16.17
2022-11-01T10:26:00.390Z,16.2
2022-11-01T10:27:00.545Z,16.22
2022-11-01T10:28:00.692Z,16.26
2022-11-01T10:29:00.829Z,16.28
2022-11-01T10:30:00.998Z,16.3
2022-11-01T10:31:01.129Z,16.32
2022-11-01T10:32:00.266Z,16.35
2022-11-01T10:33:00.673Z,16.37
2022-11-01T10:34:00.555Z,16.39
2022-11-01T10:35:00.748Z,16.42
2022-11-01T10:36:00.867Z,16.44
2022-11-01T10:37:01.017Z,16.44
2022-11-01T10:38:19.097Z,16.46
2022-11-01T10:39:52.467Z,16.46
2022-11-01T10:40:04.498Z,16.47
2022-11-01T10:41:00.616Z,16.47
2022-11-01T10:42:00.773Z,16.47
2022-11-01T10:43:00.934Z,16.48
2022-11-01T10:44:01.069Z,16.48
2022-11-01T10:45:01.217Z,16.49
2022-11-01T10:46:00.351Z,16.51
2022-11-01T10:47:00.507Z,16.54
2022-11-01T10:48:01.090Z,16.54
2022-11-01T10:49:00.814Z,16.54
2022-11-01T10:50:06.158Z,16.54
2022-11-01T10:51:01.128Z,16.55
2022-11-01T10:52:01.237Z,16.56
2022-11-01T10:53:00.412Z,16.55
2022-11-01T10:54:00.540Z,16.56
2022-11-01T10:55:00.700Z,16.55
2022-11-01T10:56:00.833Z,16.56
2022-11-01T10:57:00.990Z,16.56
2022-11-01T10:58:01.496Z,16.56
2022-11-01T10:59:00.290Z,16.57
2022-11-01T11:00:00.428Z,16.58
2022-11-01T11:01:00.722Z,16.57
2022-11-01T11:02:00.837Z,16.58
2022-11-01T11:03:00.903Z,16.6
2022-11-01T11:04:01.039Z,16.6
2022-11-01T11:05:01.173Z,16.61
2022-11-01T11:06:00.322Z,16.61
2022-11-01T11:07:00.471Z,16.63
2022-11-01T11:08:01.168Z,16.63
2022-11-01T11:09:00.765Z,16.63
2022-11-01T11:11:01.052Z,16.64
2022-11-01T11:12:01.202Z,16.64
2022-11-01T11:13:00.654Z,16.65
2022-11-01T11:14:00.493Z,16.64
2022-11-01T11:15:00.660Z,16.65
2022-11-01T11:16:00.782Z,16.65
2022-11-01T11:17:00.973Z,16.66
2022-11-01T11:18:01.126Z,16.65
2022-11-01T11:19:01.237Z,16.65
2022-11-01T11:20:00.388Z,16.64
2022-11-01T11:21:00.587Z,16.65
2022-11-01T11:22:00.677Z,16.64
2022-11-01T11:23:01.355Z,16.63
2022-11-01T11:24:01.043Z,16.63
2022-11-01T11:25:01.139Z,16.61
2022-11-01T11:26:00.293Z,16.61
2022-11-01T11:27:00.443Z,16.61
2022-11-01T11:28:01.010Z,16.6
2022-11-01T11:29:00.748Z,16.58
2022-11-01T11:30:00.903Z,16.57
2022-11-01T11:31:01.041Z,16.57
2022-11-01T11:32:01.178Z,16.55
2022-11-01T11:33:00.351Z,16.54
2022-11-01T11:34:00.499Z,16.54
2022-11-01T11:35:00.629Z,16.52
2022-11-01T11:36:00.765Z,16.51
2022-11-01T11:37:00.919Z,16.49
2022-11-01T11:38:01.577Z,16.49
2022-11-01T11:39:01.257Z,16.49
2022-11-01T11:40:00.363Z,16.49
2022-11-01T11:41:00.518Z,16.49
2022-11-01T11:42:00.663Z,16.48
2022-11-01T11:43:00.823Z,16.47
2022-11-01T11:44:00.984Z,16.48
2022-11-01T11:45:01.110Z,16.46
2022-11-01T11:46:01.253Z,16.47
2022-11-01T11:47:00.388Z,16.46
2022-11-01T11:48:00.865Z,16.46
2022-11-01T11:49:00.755Z,16.45
2022-11-01T11:50:00.894Z,16.44
2022-11-01T11:51:00.998Z,16.44
2022-11-01T11:52:01.140Z,16.43
2022-11-01T11:53:00.289Z,16.44
2022-11-01T11:54:00.460Z,16.43
2022-11-01T11:55:00.618Z,16.43
2022-11-01T11:56:00.745Z,16.42
2022-11-01T11:57:00.885Z,16.43
2022-11-01T11:58:01.384Z,16.42
2022-11-01T11:59:05.945Z,16.42
2022-11-01T12:00:00.406Z,16.41
2022-11-01T12:01:00.486Z,16.42
2022-11-01T12:02:00.855Z,16.41
2022-11-01T12:03:01.166Z,16.43
2022-11-01T12:04:00.921Z,16.43
2022-11-01T12:05:01.092Z,16.42
2022-11-01T12:06:01.223Z,16.42
2022-11-01T12:07:00.365Z,16.42
2022-11-01T12:08:00.507Z,16.42
2022-11-01T12:09:00.657Z,16.43
2022-11-01T12:10:00.829Z,16.44
2022-11-01T12:11:00.943Z,16.44
2022-11-01T12:12:01.108Z,16.44
2022-11-01T12:13:01.808Z,16.46
2022-11-01T12:14:00.383Z,16.46
2022-11-01T12:15:00.514Z,16.46
2022-11-01T12:16:00.686Z,16.46
2022-11-01T12:17:00.794Z,16.47
2022-11-01T12:18:01.173Z,16.48
2022-11-01T12:19:01.089Z,16.49
2022-11-01T12:20:01.234Z,16.49
2022-11-01T12:21:00.399Z,16.49
2022-11-01T12:22:00.561Z,16.5
2022-11-01T12:23:00.687Z,16.51
2022-11-01T12:24:00.824Z,16.51
2022-11-01T12:25:00.972Z,16.51
2022-11-01T12:26:01.127Z,16.54
2022-11-01T12:27:00.299Z,16.54
2022-11-01T12:28:00.819Z,16.54
2022-11-01T12:29:00.582Z,16.54
2022-11-01T12:30:00.728Z,16.54
2022-11-01T12:31:00.875Z,16.55
2022-11-01T12:32:01.049Z,16.56
2022-11-01T12:33:01.262Z,16.55
2022-11-01T12:34:00.323Z,16.56
2022-11-01T12:35:00.481Z,16.55
2022-11-01T12:36:00.620Z,16.56
2022-11-01T12:37:00.797Z,16.56
2022-11-01T12:38:01.488Z,16.56
2022-11-01T12:39:01.070Z,16.56
2022-11-01T12:40:01.209Z,16.57
2022-11-01T12:41:00.359Z,16.56
2022-11-01T12:42:00.530Z,16.56
2022-11-01T12:43:00.668Z,16.55
2022-11-01T12:44:00.810Z,16.55
2022-11-01T12:45:00.956Z,16.56
2022-11-01T12:46:01.135Z,16.57
2022-11-01T12:47:00.266Z,16.57
2022-11-01T12:48:00.873Z,16.58
2022-11-01T12:49:00.549Z,16.58
2022-11-01T12:50:00.688Z,16.59
2022-11-01T12:51:00.838Z,16.59
2022-11-01T12:52:01.047Z,16.59
2022-11-01T12:53:01.476Z,16.59
2022-11-01T12:54:00.276Z,16.6
2022-11-01T12:55:00.430Z,16.6
2022-11-01T12:56:00.590Z,16.6
2022-11-01T12:57:00.728Z,16.61
2022-11-01T12:58:00.912Z,16.61
2022-11-01T12:59:01.029Z,16.61
2022-11-01T13:00:01.183Z,16.61
2022-11-01T13:01:00.414Z,16.61
2022-11-01T13:02:00.698Z,16.61
2022-11-01T13:03:00.883Z,16.6
2022-11-01T13:04:00.764Z,16.58
2022-11-01T13:05:00.903Z,16.57
2022-11-01T13:06:01.067Z,16.56
2022-11-01T13:07:01.203Z,16.55
2022-11-01T13:08:00.377Z,16.55
2022-11-01T13:09:00.499Z,16.56
2022-11-01T13:10:00.655Z,16.57
2022-11-01T13:11:00.812Z,16.55
2022-11-01T13:12:00.962Z,16.51